createdAt,value
2019-03-19T00:01:35.781Z,91.80
2019-03-19T00:04:08.061Z,80.80
2019-03-19T00:06:39.100Z,82.90
2019-03-19T00:09:10.106Z,84.83
2019-03-19T00:11:41.209Z,78.15
2019-03-19T00:14:12.161Z,83.75
2019-03-19T00:16:43.453Z,82.80
2019-03-19T00:19:14.459Z,86.87
2019-03-19T00:21:45.359Z,100.22
2019-03-19T00:24:18.837Z,94.55
2019-03-19T00:26:49.842Z,95.03
2019-03-19T00:29:20.880Z,89.87
2019-03-19T00:31:51.775Z,91.25
2019-03-19T00:34:22.832Z,97.67
2019-03-19T00:36:53.989Z,96.47
2019-03-19T00:39:28.877Z,93.25
2019-03-19T00:41:59.899Z,90.10
2019-03-19T00:44:30.507Z,77.80
2019-03-19T00:47:04.641Z,95.47
2019-03-19T00:49:35.969Z,102.90
2019-03-19T00:52:07.187Z,96.87
2019-03-19T00:54:38.901Z,98.72
2019-03-19T00:57:10.318Z,106.85
2019-03-19T00:59:41.344Z,96.15
2019-03-19T01:02:14.590Z,89.13
2019-03-19T01:04:45.684Z,96.15
2019-03-19T01:07:17.302Z,90.95
2019-03-19T01:10:00.838Z,94.22
2019-03-19T01:12:32.161Z,93.30
2019-03-19T01:15:08.636Z,105.58
2019-03-19T01:17:42.243Z,93.70
2019-03-19T01:20:14.668Z,99.67
2019-03-19T01:22:45.805Z,96.92
2019-03-19T01:25:18.806Z,99.50
2019-03-19T01:27:51.022Z,93.58
2019-03-19T01:30:22.274Z,93.52
2019-03-19T01:32:53.584Z,95.15
2019-03-19T01:35:28.610Z,95.95
2019-03-19T01:37:59.723Z,86.05
2019-03-19T01:40:31.040Z,94.47
2019-03-19T01:43:02.103Z,87.95
2019-03-19T01:45:33.451Z,92.70
2019-03-19T01:48:04.484Z,83.90
2019-03-19T01:50:35.602Z,93.55
2019-03-19T01:53:06.800Z,97.35
2019-03-19T01:55:37.699Z,94.10
2019-03-19T01:58:11.765Z,84.80
2019-03-19T02:00:43.316Z,88.50
2019-03-19T02:03:14.375Z,87.65
2019-03-19T02:05:52.990Z,85.32
2019-03-19T02:11:12.994Z,85.00
2019-03-19T02:13:44.124Z,84.95
2019-03-19T02:16:15.053Z,91.40
2019-03-19T02:18:47.429Z,78.52
2019-03-19T02:21:18.496Z,85.95
2019-03-19T02:23:49.694Z,88.78
2019-03-19T02:26:20.875Z,86.25
2019-03-19T02:28:51.856Z,93.75
2019-03-19T02:31:22.882Z,84.13
2019-03-19T02:33:54.073Z,77.97
2019-03-19T02:36:25.222Z,77.67
2019-03-19T02:38:56.372Z,80.83
2019-03-19T02:41:32.908Z,73.67
2019-03-19T02:44:04.067Z,80.10
2019-03-19T02:46:35.023Z,74.62
2019-03-19T02:49:19.826Z,77.35
2019-03-19T02:51:51.060Z,76.20
2019-03-19T02:54:22.026Z,92.53
2019-03-19T02:56:52.953Z,82.65
2019-03-19T02:59:24.046Z,79.07
2019-03-19T03:01:55.503Z,79.42
2019-03-19T03:04:26.786Z,72.55
2019-03-19T03:06:58.028Z,75.25
2019-03-19T03:09:29.138Z,71.70
2019-03-19T03:12:00.805Z,77.87
2019-03-19T03:14:31.896Z,68.83
2019-03-19T03:17:06.358Z,67.45
2019-03-19T03:19:37.560Z,73.52
2019-03-19T03:22:10.004Z,73.75
2019-03-19T03:24:41.030Z,74.70
2019-03-19T03:27:12.527Z,75.47
2019-03-19T03:29:48.154Z,71.80
2019-03-19T03:32:19.112Z,67.32
2019-03-19T03:34:51.480Z,68.20
2019-03-19T03:37:25.680Z,70.57
2019-03-19T03:39:56.779Z,73.75
2019-03-19T03:42:29.164Z,79.62
2019-03-19T03:45:03.278Z,77.87
2019-03-19T03:47:35.440Z,70.67
2019-03-19T03:50:12.466Z,70.25
2019-03-19T03:52:43.519Z,66.37
2019-03-19T03:55:21.329Z,70.85
2019-03-19T03:57:57.242Z,67.30
2019-03-19T04:00:29.463Z,66.35
2019-03-19T04:03:00.721Z,70.65
2019-03-19T04:05:31.862Z,81.78
2019-03-19T04:08:03.135Z,71.95
2019-03-19T04:10:35.248Z,74.62
2019-03-19T04:13:06.658Z,80.32
2019-03-19T04:15:37.914Z,80.65
2019-03-19T04:18:09.240Z,74.37
2019-03-19T04:20:40.963Z,78.00
2019-03-19T04:23:11.883Z,71.37
2019-03-19T04:25:43.755Z,71.22
2019-03-19T04:28:15.431Z,75.65
2019-03-19T04:30:46.515Z,79.17
2019-03-19T04:33:18.317Z,71.97
2019-03-19T04:35:49.224Z,75.65
2019-03-19T04:38:20.137Z,77.15
2019-03-19T04:40:51.466Z,70.03
2019-03-19T04:43:22.976Z,68.80
2019-03-19T04:45:54.504Z,76.90
2019-03-19T04:48:29.637Z,73.62
2019-03-19T04:51:01.964Z,71.55
2019-03-19T04:53:33.491Z,69.97
2019-03-19T04:56:04.748Z,72.30
2019-03-19T04:58:39.692Z,72.47
2019-03-19T05:01:15.425Z,77.03
2019-03-19T05:10:12.372Z,70.57
2019-03-19T05:12:43.579Z,68.17
2019-03-19T05:15:14.792Z,66.02
2019-03-19T05:17:51.761Z,73.80
2019-03-19T05:20:30.613Z,70.12
2019-03-19T05:23:05.175Z,66.62
2019-03-19T05:25:37.062Z,68.57
2019-03-19T05:28:08.132Z,63.98
2019-03-19T05:30:40.938Z,66.15
2019-03-19T05:33:12.174Z,69.40
2019-03-19T05:35:43.171Z,67.40
2019-03-19T05:38:14.188Z,63.30
2019-03-19T05:40:45.376Z,67.62
2019-03-19T05:43:19.386Z,66.90
2019-03-19T05:45:50.336Z,66.95
2019-03-19T05:48:21.273Z,58.30
2019-03-19T05:50:52.192Z,64.70
2019-03-19T05:53:23.180Z,59.88
2019-03-19T05:55:57.021Z,60.10
2019-03-19T05:58:30.896Z,57.27
2019-03-19T06:01:02.081Z,57.98
2019-03-19T06:03:33.941Z,56.65
2019-03-19T06:06:05.179Z,54.95
2019-03-19T06:08:36.484Z,54.42
2019-03-19T06:14:03.793Z,52.98
2019-03-19T06:16:34.875Z,51.85
2019-03-19T06:19:08.389Z,54.50
2019-03-19T06:21:39.446Z,55.38
2019-03-19T06:24:19.552Z,60.73
2019-03-19T06:26:44.117Z,53.60
2019-03-19T06:29:15.547Z,55.60
2019-03-19T06:31:48.236Z,49.05
2019-03-19T06:34:19.413Z,55.70
2019-03-19T06:36:50.774Z,53.23
2019-03-19T06:39:22.068Z,53.68
2019-03-19T06:41:55.889Z,53.92
2019-03-19T06:44:28.179Z,54.05
2019-03-19T06:47:05.128Z,51.77
2019-03-19T06:49:37.546Z,50.03
2019-03-19T06:52:08.772Z,51.08
2019-03-19T06:54:39.737Z,49.08
2019-03-19T06:57:12.098Z,51.83
2019-03-19T06:59:43.052Z,47.03
2019-03-19T07:02:15.505Z,50.70
2019-03-19T07:04:47.034Z,48.90
2019-03-19T07:07:19.648Z,45.35
2019-03-19T07:09:50.821Z,51.65
2019-03-19T07:12:22.104Z,49.03
2019-03-19T07:14:53.052Z,49.58
2019-03-19T07:17:24.161Z,44.23
2019-03-19T07:19:59.818Z,51.63
2019-03-19T07:22:35.676Z,49.35
2019-03-19T07:25:08.177Z,54.70
2019-03-19T07:27:40.557Z,45.33
2019-03-19T07:30:16.796Z,53.85
2019-03-19T07:32:47.938Z,47.13
2019-03-19T07:35:18.904Z,54.45
2019-03-19T07:37:51.355Z,45.95
2019-03-19T07:40:22.510Z,52.73
2019-03-19T07:42:53.629Z,46.50
2019-03-19T07:45:27.310Z,41.73
2019-03-19T07:47:58.873Z,41.75
2019-03-19T07:50:32.763Z,43.85
2019-03-19T07:53:13.048Z,48.15
2019-03-19T07:55:44.345Z,44.18
2019-03-19T07:58:15.727Z,47.00
2019-03-19T08:00:46.450Z,51.20
2019-03-19T08:03:20.701Z,56.25
2019-03-19T08:05:53.147Z,49.40
2019-03-19T08:08:25.814Z,54.33
2019-03-19T08:11:00.332Z,56.25
2019-03-19T08:13:31.627Z,52.67
2019-03-19T08:16:05.384Z,50.67
2019-03-19T08:18:36.648Z,50.88
2019-03-19T08:21:08.834Z,51.33
2019-03-19T08:23:39.887Z,52.15
2019-03-19T08:26:12.976Z,46.37
2019-03-19T08:28:55.299Z,53.60
2019-03-19T08:31:21.131Z,47.03
2019-03-19T08:33:52.068Z,44.70
2019-03-19T08:36:23.893Z,47.98
2019-03-19T08:38:56.085Z,45.98
2019-03-19T08:41:27.534Z,48.35
2019-03-19T08:43:58.704Z,46.68
2019-03-19T08:46:30.247Z,48.87
2019-03-19T08:51:59.363Z,54.17
2019-03-19T08:54:32.573Z,42.78
2019-03-19T08:57:10.443Z,45.85
2019-03-19T08:59:44.328Z,45.00
2019-03-19T09:02:16.728Z,45.23
2019-03-19T09:04:56.839Z,45.43
2019-03-19T09:07:29.133Z,43.23
2019-03-19T09:10:05.253Z,47.93
2019-03-19T09:12:36.444Z,42.75
2019-03-19T09:15:10.590Z,45.78
2019-03-19T09:17:44.406Z,51.65
2019-03-19T09:20:23.947Z,43.85
2019-03-19T09:22:56.901Z,46.53
2019-03-19T09:25:31.042Z,46.63
2019-03-19T09:28:02.264Z,46.58
2019-03-19T09:30:33.276Z,51.80
2019-03-19T09:33:06.570Z,45.92
2019-03-19T09:35:37.706Z,48.08
2019-03-19T09:38:08.916Z,45.03
2019-03-19T09:40:40.574Z,42.17
2019-03-19T09:43:12.385Z,47.17
2019-03-19T09:45:43.552Z,47.10
2019-03-19T09:48:17.924Z,45.52
2019-03-19T09:50:49.382Z,43.20
2019-03-19T09:53:20.648Z,45.12
2019-03-19T09:55:54.914Z,44.90
2019-03-19T09:58:26.265Z,45.08
2019-03-19T10:01:00.026Z,43.42
2019-03-19T10:03:33.161Z,43.80
2019-03-19T10:12:57.255Z,44.23
2019-03-19T10:15:28.172Z,44.45
2019-03-19T10:18:03.905Z,43.52
2019-03-19T10:20:34.990Z,45.00
2019-03-19T10:23:06.222Z,39.20
2019-03-19T10:25:38.058Z,44.03
2019-03-19T10:28:09.542Z,43.63
2019-03-19T10:30:49.462Z,47.48
2019-03-19T10:35:50.294Z,41.98
2019-03-19T10:38:21.394Z,43.68
2019-03-19T10:40:52.521Z,46.48
2019-03-19T10:43:23.828Z,43.55
2019-03-19T10:45:54.937Z,40.65
2019-03-19T10:48:32.942Z,43.65
2019-03-19T10:51:03.899Z,42.78
2019-03-19T10:53:34.943Z,50.73
2019-03-19T10:56:06.140Z,52.65
2019-03-19T10:58:41.546Z,45.70
2019-03-19T11:01:17.981Z,50.17
2019-03-19T11:03:51.418Z,41.18
2019-03-19T11:06:28.603Z,43.40
2019-03-19T11:08:59.617Z,50.92
2019-03-19T11:11:30.543Z,41.05
2019-03-19T11:14:01.450Z,43.85
2019-03-19T11:16:35.382Z,46.75
2019-03-19T11:19:06.536Z,44.83
2019-03-19T11:21:37.708Z,45.67
2019-03-19T11:24:08.804Z,42.75
2019-03-19T11:26:39.607Z,47.67
2019-03-19T11:29:10.715Z,45.83
2019-03-19T11:31:41.649Z,46.80
2019-03-19T11:34:12.658Z,46.85
2019-03-19T11:36:43.663Z,49.23
2019-03-19T11:39:14.513Z,47.53
2019-03-19T11:41:45.524Z,52.55
2019-03-19T11:44:16.585Z,51.50
2019-03-19T11:46:47.654Z,46.00
2019-03-19T11:49:18.555Z,50.28
2019-03-19T11:51:49.629Z,47.00
2019-03-19T11:54:20.722Z,46.28
2019-03-19T11:56:54.562Z,47.55
2019-03-19T11:59:25.218Z,52.15
2019-03-19T12:01:56.489Z,50.40
2019-03-19T12:04:27.413Z,47.98
2019-03-19T12:06:58.289Z,54.63
2019-03-19T12:09:29.243Z,50.60
2019-03-19T12:12:00.296Z,52.03
2019-03-19T12:14:31.132Z,50.55
2019-03-19T12:17:01.855Z,56.30
2019-03-19T12:19:32.837Z,51.60
2019-03-19T12:22:06.268Z,49.73
2019-03-19T12:24:37.175Z,53.00
2019-03-19T12:27:08.350Z,53.15
2019-03-19T12:29:42.422Z,52.43
2019-03-19T12:32:13.384Z,53.35
2019-03-19T12:34:44.373Z,52.93
2019-03-19T12:37:15.442Z,47.38
2019-03-19T12:39:46.517Z,52.33
2019-03-19T12:42:17.521Z,49.58
2019-03-19T12:44:48.618Z,60.88
2019-03-19T12:47:19.555Z,51.35
2019-03-19T12:49:50.425Z,53.63
2019-03-19T12:52:21.234Z,53.05
2019-03-19T12:54:52.189Z,52.62
2019-03-19T12:57:23.523Z,59.98
2019-03-19T12:59:54.802Z,52.95
2019-03-19T13:02:25.899Z,49.70
2019-03-19T13:04:58.026Z,51.73
2019-03-19T13:07:29.160Z,48.73
2019-03-19T13:10:00.316Z,49.95
2019-03-19T13:12:31.736Z,44.80
2019-03-19T13:15:02.818Z,51.35
2019-03-19T13:17:33.733Z,48.45
2019-03-19T13:20:05.584Z,50.52
2019-03-19T13:22:36.479Z,48.45
2019-03-19T13:25:11.670Z,47.45
2019-03-19T13:27:43.583Z,47.98
2019-03-19T13:30:17.018Z,52.15
2019-03-19T13:32:48.227Z,42.23
2019-03-19T13:35:19.168Z,49.50
2019-03-19T13:37:49.996Z,48.38
2019-03-19T13:40:21.610Z,54.33
2019-03-19T13:42:52.498Z,50.20
2019-03-19T13:45:25.376Z,52.78
2019-03-19T13:47:56.271Z,50.80
2019-03-19T13:50:27.379Z,48.20
2019-03-19T13:52:58.469Z,48.63
2019-03-19T13:55:29.514Z,48.95
2019-03-19T13:58:00.476Z,52.83
2019-03-19T14:00:31.558Z,49.35
2019-03-19T14:03:02.592Z,51.63
2019-03-19T14:05:33.586Z,54.80
2019-03-19T14:08:04.718Z,58.30
2019-03-19T14:10:35.725Z,57.55
2019-03-19T14:13:07.548Z,59.83
2019-03-19T14:15:38.530Z,58.73
2019-03-19T14:18:09.460Z,65.22
2019-03-19T14:20:40.613Z,59.88
2019-03-19T14:23:11.752Z,54.88
2019-03-19T14:25:42.630Z,48.42
2019-03-19T14:28:13.422Z,52.55
2019-03-19T14:30:45.405Z,52.40
2019-03-19T14:33:16.304Z,47.60
2019-03-19T14:35:47.407Z,48.90
2019-03-19T14:38:19.328Z,47.60
2019-03-19T14:40:50.636Z,44.42
2019-03-19T14:43:21.772Z,42.30
2019-03-19T14:45:52.878Z,43.75
2019-03-19T14:48:23.977Z,45.40
2019-03-19T14:50:54.999Z,44.88
2019-03-19T14:53:25.896Z,47.98
2019-03-19T14:55:56.845Z,46.13
2019-03-19T14:58:28.024Z,38.20
2019-03-19T15:00:58.875Z,40.05
2019-03-19T15:03:29.920Z,33.63
2019-03-19T15:06:00.945Z,27.82
2019-03-19T15:08:32.195Z,31.10
2019-03-19T15:11:03.396Z,29.25
2019-03-19T15:13:34.363Z,26.80
2019-03-19T15:16:05.336Z,28.12
2019-03-19T15:18:36.538Z,28.77
2019-03-19T15:21:07.382Z,28.67
2019-03-19T15:23:38.437Z,31.40
2019-03-19T15:26:09.524Z,25.08
2019-03-19T15:28:40.469Z,28.62
2019-03-19T15:31:11.351Z,28.98
2019-03-19T15:33:42.428Z,28.90
2019-03-19T15:36:13.386Z,27.70
2019-03-19T15:38:44.304Z,36.45
2019-03-19T15:41:15.225Z,29.12
2019-03-19T15:43:46.357Z,33.70
2019-03-19T15:46:17.235Z,35.45
2019-03-19T15:48:48.283Z,37.10
2019-03-19T15:51:19.298Z,39.90
2019-03-19T15:53:50.664Z,36.95
2019-03-19T15:56:21.786Z,37.23
2019-03-19T15:58:53.168Z,39.85
2019-03-19T16:01:27.102Z,39.50
2019-03-19T16:03:59.241Z,39.80
2019-03-19T16:06:30.385Z,40.52
2019-03-19T16:09:03.279Z,42.53
2019-03-19T16:11:33.775Z,42.50
2019-03-19T16:14:04.579Z,38.98
2019-03-19T16:16:35.501Z,42.35
2019-03-19T16:19:06.709Z,42.93
2019-03-19T16:21:37.677Z,37.48
2019-03-19T16:24:08.637Z,34.55
2019-03-19T16:26:39.550Z,39.23
2019-03-19T16:29:11.635Z,41.02
2019-03-19T16:31:50.568Z,38.08
2019-03-19T16:34:14.658Z,39.98
2019-03-19T16:36:45.827Z,39.90
2019-03-19T16:39:16.757Z,40.08
2019-03-19T16:41:47.838Z,44.58
2019-03-19T16:44:19.133Z,40.95
2019-03-19T16:46:49.903Z,39.73
2019-03-19T16:49:20.810Z,43.58
2019-03-19T16:51:51.809Z,39.90
2019-03-19T16:54:22.808Z,39.50
2019-03-19T16:56:53.887Z,42.33
2019-03-19T16:59:25.133Z,43.58
2019-03-19T17:02:01.663Z,41.50
2019-03-19T17:04:28.306Z,41.42
2019-03-19T17:06:59.377Z,42.70
2019-03-19T17:09:30.401Z,48.30
2019-03-19T17:12:01.595Z,44.20
2019-03-19T17:14:32.430Z,46.28
2019-03-19T17:17:03.431Z,42.70
2019-03-19T17:19:34.422Z,41.92
2019-03-19T17:22:05.580Z,44.23
2019-03-19T17:24:36.528Z,45.25
2019-03-19T17:27:07.566Z,44.58
2019-03-19T17:29:38.411Z,45.85
2019-03-19T17:32:13.256Z,41.63
2019-03-19T17:34:41.766Z,41.28
2019-03-19T17:37:12.930Z,41.15
2019-03-19T17:39:43.911Z,43.10
2019-03-19T17:42:18.164Z,47.48
2019-03-19T17:44:49.554Z,48.63
2019-03-19T17:47:20.481Z,45.08
2019-03-19T17:49:51.640Z,43.98
2019-03-19T17:52:22.543Z,46.90
2019-03-19T17:54:53.347Z,45.52
2019-03-19T17:57:24.437Z,43.58
2019-03-19T17:59:55.229Z,50.55
2019-03-19T18:02:26.266Z,45.65
2019-03-19T18:04:57.407Z,44.38
2019-03-19T18:07:28.313Z,42.20
2019-03-19T18:09:59.416Z,43.17
2019-03-19T18:12:30.176Z,48.25
2019-03-19T18:15:01.334Z,43.40
2019-03-19T18:17:32.352Z,43.70
2019-03-19T18:20:03.238Z,42.80
2019-03-19T18:22:34.965Z,37.50
2019-03-19T18:25:06.779Z,40.70
2019-03-19T18:27:37.934Z,43.73
2019-03-19T18:30:11.376Z,44.33
2019-03-19T18:32:42.245Z,42.25
2019-03-19T18:35:13.553Z,42.45
2019-03-19T18:37:44.914Z,43.35
2019-03-19T18:40:18.435Z,45.03
2019-03-19T18:42:49.407Z,48.33
2019-03-19T18:45:21.243Z,46.10
2019-03-19T18:47:52.296Z,43.80
2019-03-19T18:50:24.377Z,41.35
2019-03-19T18:52:55.174Z,50.03
2019-03-19T18:55:26.222Z,40.08
2019-03-19T18:57:57.243Z,44.73
2019-03-19T19:00:28.345Z,47.17
2019-03-19T19:03:00.289Z,44.98
2019-03-19T19:05:31.900Z,48.87
2019-03-19T19:08:02.877Z,47.10
2019-03-19T19:10:33.812Z,48.75
2019-03-19T19:13:04.823Z,50.65
2019-03-19T19:15:35.776Z,51.02
2019-03-19T19:18:07.008Z,55.23
2019-03-19T19:20:37.751Z,48.23
2019-03-19T19:23:08.652Z,49.18
2019-03-19T19:25:39.604Z,50.48
2019-03-19T19:28:10.607Z,50.20
2019-03-19T19:30:41.676Z,49.95
2019-03-19T19:33:12.722Z,45.67
2019-03-19T19:35:43.635Z,45.28
2019-03-19T19:38:14.570Z,45.60
2019-03-19T19:40:45.278Z,46.13
2019-03-19T19:43:15.957Z,45.23
2019-03-19T19:45:46.961Z,50.83
2019-03-19T19:48:17.980Z,47.30
2019-03-19T19:50:49.079Z,46.92
2019-03-19T19:53:20.035Z,47.55
2019-03-19T19:55:51.204Z,47.38
2019-03-19T19:58:22.237Z,51.75
2019-03-19T20:00:53.231Z,43.38
2019-03-19T20:03:24.522Z,46.30
2019-03-19T20:05:55.555Z,48.78
2019-03-19T20:08:26.827Z,50.28
2019-03-19T20:10:57.586Z,43.63
2019-03-19T20:13:28.423Z,51.35
2019-03-19T20:15:59.231Z,47.08
2019-03-19T20:18:30.145Z,49.93
2019-03-19T20:21:01.143Z,46.40
2019-03-19T20:23:32.233Z,53.17
2019-03-19T20:26:03.282Z,51.08
2019-03-19T20:28:34.274Z,46.25
2019-03-19T20:31:05.132Z,46.88
2019-03-19T20:33:36.031Z,46.20
2019-03-19T20:36:07.012Z,47.17
2019-03-19T20:38:38.029Z,47.40
2019-03-19T20:41:10.363Z,48.90
2019-03-19T20:43:41.176Z,51.28
2019-03-19T20:46:12.217Z,48.50
2019-03-19T20:48:45.932Z,52.48
2019-03-19T20:51:16.940Z,46.70
2019-03-19T20:53:47.921Z,48.68
2019-03-19T20:56:19.067Z,49.67
2019-03-19T20:58:51.023Z,48.58
2019-03-19T21:01:24.463Z,48.55
2019-03-19T21:03:55.499Z,51.50
2019-03-19T21:06:26.686Z,57.53
2019-03-19T21:08:57.467Z,51.13
2019-03-19T21:11:28.484Z,55.55
2019-03-19T21:13:59.448Z,55.85
2019-03-19T21:16:30.455Z,51.30
2019-03-19T21:19:01.343Z,52.93
2019-03-19T21:21:35.431Z,49.75
2019-03-19T21:24:06.332Z,49.38
2019-03-19T21:26:37.264Z,50.70
2019-03-19T21:29:08.140Z,47.30
2019-03-19T21:31:39.390Z,51.37
2019-03-19T21:34:10.315Z,50.38
2019-03-19T21:36:41.565Z,49.88
2019-03-19T21:39:12.629Z,56.63
2019-03-19T21:41:43.833Z,53.70
2019-03-19T21:44:14.888Z,46.37
2019-03-19T21:46:45.974Z,58.00
2019-03-19T21:49:17.084Z,55.45
2019-03-19T21:51:48.274Z,54.23
2019-03-19T21:54:19.427Z,56.98
2019-03-19T21:56:50.198Z,58.23
2019-03-19T21:59:21.091Z,56.75
2019-03-19T22:01:52.163Z,55.48
2019-03-19T22:04:23.225Z,56.15
2019-03-19T22:06:54.231Z,58.40
2019-03-19T22:09:25.283Z,59.75
2019-03-19T22:11:56.378Z,61.45
2019-03-19T22:14:27.383Z,54.58
2019-03-19T22:16:58.353Z,64.92
2019-03-19T22:19:29.513Z,61.75
2019-03-19T22:22:00.460Z,60.08
2019-03-19T22:24:31.565Z,61.98
2019-03-19T22:27:02.477Z,61.83
2019-03-19T22:29:33.511Z,63.48
2019-03-19T22:32:04.415Z,63.40
2019-03-19T22:34:35.326Z,67.30
2019-03-19T22:37:06.571Z,71.40
2019-03-19T22:39:37.599Z,62.50
2019-03-19T22:42:11.374Z,63.52
2019-03-19T22:44:42.252Z,62.10
2019-03-19T22:47:13.179Z,62.40
2019-03-19T22:49:44.192Z,68.55
2019-03-19T22:52:15.154Z,69.72
2019-03-19T22:54:46.282Z,71.10
2019-03-19T22:57:17.308Z,69.95
2019-03-19T22:59:48.179Z,72.75
2019-03-19T23:02:19.216Z,67.85
2019-03-19T23:04:50.147Z,74.75
2019-03-19T23:07:20.847Z,70.80
2019-03-19T23:09:51.992Z,67.82
2019-03-19T23:12:22.977Z,71.33
2019-03-19T23:14:54.050Z,70.70
2019-03-19T23:17:25.044Z,74.37
2019-03-19T23:19:57.444Z,69.92
2019-03-19T23:22:28.783Z,70.62
2019-03-19T23:24:59.945Z,75.05
2019-03-19T23:27:31.068Z,74.30
2019-03-19T23:30:02.125Z,73.55
2019-03-19T23:32:33.081Z,77.22
2019-03-19T23:35:04.001Z,73.90
2019-03-19T23:37:34.980Z,74.05
2019-03-19T23:40:14.184Z,75.50
2019-03-19T23:42:48.985Z,77.27
2019-03-19T23:45:19.733Z,75.30
2019-03-19T23:47:50.903Z,73.97
2019-03-19T23:50:22.590Z,79.60
2019-03-19T23:52:53.772Z,74.58
2019-03-19T23:55:24.629Z,78.22
2019-03-19T23:57:55.614Z,78.33
